Kleine Brogel Air Base

EBBL · Limburg, Flanders, 比利时

罗盘
风向 的 Kleine Brogel Air Base 5L/23R
风: 2 kt, 1 beaufort

1 kt

2 kt
改变
0 ft 1.000 2.000 3.000 4.000 5.000
Cloud Cloud
FEW 700
Cloud Cloud Cloud Cloud
SCT 1.100
Cloud Cloud Cloud Cloud Cloud Cloud
BKN 2.500
METAR EBBL 211125Z VRB02KT 8000 FEW007 SCT011 BKN025 17/16 Q1011 GRN GRN TEMPO YLO

METAR Kleine Brogel Air Base - EBBL

Kleine Brogel Air Base是,比利时中的中型机场。 该机场位于纬度51,16770和经度5,47092。 该机场有2条跑道: 5L/23R 和 5R/23L. 本场的ICAO机场代码为EBBL。 机场在Bruxelles FIR中。

该航空气象观测是针对Kleine Brogel Air Base在2024年6月21日 13:25, 当地时间进行的。

机场观察

可变方向的风很小或没有风。

可见度为8 km。

有几云在700 ft的高度, 疏云,零星散落的云朵在1.100 ft的高度 和 碎云在2.500 ft的高度。 破损或更高的上限为2.500 ft。

温度和风寒是17 °C。 露点为16 °C,相对湿度为94%。 海平面上的气压为1011 hPa (QNH)。

发展趋势

  • 暂时的

    可变方向的风很小或没有。

白天

今天,太阳从05:22升起,在21:57降落。 这适用于Kleine Brogel Air Base,世界夏令时可能有所不同。 当地时间与世界标准时间之间的时差为+2 小时。 夏令时目前正在进行中。

公司介绍

我们没有关于这个机场的公司信息。

体会

到Vliegles.nl去找飞行课程,跳伞和其他飞行体验。 浏览页面,了解Kleine Brogel Air Base附近所有可用的活动。 你也可以使用搜索功能来寻找你所在地附近的特定飞行课程、跳伞或其他飞行体验。

跑道

Id 标题 侧风 逆风 侧风 %
5L/23R 050°-230° 2 kt 1 kt 77 %
5R/23L 050°-230° 2 kt 1 kt 77 %

逆风成分最大的方向会被突出显示,并用于横风计算。 这并不一定意味着这个方向在使用。

乌云

700 ft FEW 几云
1.100 ft SCT 疏云,零星散落的云朵
2.500 ft BKN 碎云

温度 & 天气

温度 17 °C
露点 16 °C
相对湿度 94%
Kp-index 0 (0-9)

白天

日出
05:22
中午
13:40
日落
21:57 (8:02)

小工具

你想在你的网站上有一个关于Kleine Brogel Air Base的当前航空天气(METAR)的小部件吗?

显示HTML代码
报告变更